Time;durP1;ratioP1;P1;durP2;ratioP2;P2;SDS_P1;SDS_P2;PMS_P1;PMS_P2;Temp;Humidity;BMP_temperature;BMP_pressure;BME280_temperature;BME280_humidity;BME280_pressure;Samples;Min_cycle;Max_cycle;Signal;HPM_P1;HPM_P2
2022/10/11 00:00:46;;;;;;;11.50;4.25;;;14.60;99.90;;;;;;5029849;28;20493;-73
2022/10/11 00:03:15;;;;;;;9.88;3.75;;;14.60;99.90;;;;;;5030825;28;20061;-74
2022/10/11 00:05:42;;;;;;;8.57;3.22;;;14.60;99.90;;;;;;5030414;28;20029;-74
2022/10/11 00:08:12;;;;;;;7.00;3.60;;;14.60;99.90;;;;;;5033262;28;20036;-73
2022/10/11 00:10:44;;;;;;;9.38;3.92;;;14.60;99.90;;;;;;5040603;28;20102;-74
2022/10/11 00:13:12;;;;;;;8.77;3.80;;;14.60;99.90;;;;;;5047407;28;20048;-72
2022/10/11 00:15:39;;;;;;;7.55;3.85;;;14.60;99.90;;;;;;5030873;28;20486;-72
2022/10/11 00:18:06;;;;;;;13.65;4.18;;;14.60;99.90;;;;;;5031460;28;20030;-72
2022/10/11 00:20:31;;;;;;;7.60;3.78;;;14.60;99.90;;;;;;5027106;28;20022;-73
2022/10/11 00:22:57;;;;;;;10.95;3.80;;;14.60;99.90;;;;;;5030461;28;20052;-72
2022/10/11 00:25:25;;;;;;;8.95;4.32;;;14.60;99.90;;;;;;5030053;28;20032;-72
2022/10/11 00:27:51;;;;;;;11.88;4.15;;;14.70;99.90;;;;;;5030712;28;20093;-73
2022/10/11 00:30:17;;;;;;;11.68;4.13;;;14.60;99.90;;;;;;5028918;28;20160;-72
2022/10/11 00:32:42;;;;;;;7.40;3.65;;;14.70;99.90;;;;;;5046939;28;20037;-73
2022/10/11 00:35:11;;;;;;;8.65;3.85;;;14.70;99.90;;;;;;5029832;28;20049;-72
2022/10/11 00:37:39;;;;;;;7.40;4.22;;;14.60;99.90;;;;;;5030846;28;20391;-75
2022/10/11 00:40:08;;;;;;;8.75;3.22;;;14.60;99.90;;;;;;5049150;28;20105;-75
2022/10/11 00:42:37;;;;;;;7.70;3.53;;;14.60;99.90;;;;;;5048773;28;20038;-75
2022/10/11 00:45:28;;;;;;;14.10;3.67;;;14.70;99.90;;;;;;5033653;28;20132;-75
2022/10/11 00:47:58;;;;;;;10.27;3.33;;;14.60;99.90;;;;;;5033359;28;20034;-75
2022/10/11 00:50:33;;;;;;;14.48;4.30;;;14.60;99.90;;;;;;5048721;28;20021;-72
2022/10/11 00:53:01;;;;;;;10.40;4.05;;;14.60;99.90;;;;;;5033136;28;20022;-73
2022/10/11 00:55:30;;;;;;;8.95;4.30;;;14.60;99.90;;;;;;5046697;28;20032;-73
2022/10/11 00:57:57;;;;;;;8.18;3.60;;;14.60;99.90;;;;;;5027002;28;20382;-73
2022/10/11 01:00:26;;;;;;;10.80;4.10;;;14.60;99.90;;;;;;5048253;28;20048;-73
2022/10/11 01:02:53;;;;;;;12.90;4.15;;;14.60;99.90;;;;;;5032526;28;20528;-74
2022/10/11 01:05:20;;;;;;;9.07;3.67;;;14.60;99.90;;;;;;5033016;28;20493;-74
2022/10/11 01:07:56;;;;;;;10.18;3.85;;;14.60;99.90;;;;;;5033255;28;20032;-74
2022/10/11 01:10:21;;;;;;;10.38;3.90;;;14.60;99.90;;;;;;5033236;28;20056;-74
2022/10/11 01:12:53;;;;;;;11.25;4.20;;;14.60;99.90;;;;;;5048551;28;20437;-73
2022/10/11 01:15:34;;;;;;;7.15;4.15;;;14.50;99.90;;;;;;5033008;28;20367;-74
2022/10/11 01:18:07;;;;;;;10.23;3.65;;;14.50;99.90;;;;;;5033235;28;20037;-74
2022/10/11 01:20:56;;;;;;;11.18;4.45;;;14.50;99.90;;;;;;5033078;28;20033;-73
2022/10/11 01:23:56;;;;;;;8.90;4.30;;;14.40;99.90;;;;;;5033105;28;20017;-74
2022/10/11 01:26:25;;;;;;;12.70;4.03;;;14.40;99.90;;;;;;5013107;28;20482;-73
2022/10/11 01:29:32;;;;;;;9.70;3.15;;;14.30;99.90;;;;;;5032824;28;20021;-73
2022/10/11 01:32:25;;;;;;;8.55;4.20;;;14.30;99.90;;;;;;4971356;28;20039;-73
2022/10/11 01:35:20;;;;;;;10.02;3.88;;;14.30;99.90;;;;;;5032486;28;20029;-74
2022/10/11 01:38:07;;;;;;;13.00;4.40;;;14.20;99.90;;;;;;5032535;28;20029;-73
2022/10/11 01:40:50;;;;;;;14.75;4.35;;;14.20;99.90;;;;;;5030668;28;20041;-74
2022/10/11 01:43:18;;;;;;;7.38;4.18;;;14.20;99.90;;;;;;5048670;23;20017;-72
2022/10/11 01:45:49;;;;;;;13.10;4.45;;;14.10;99.90;;;;;;5043245;28;20029;-73
2022/10/11 01:48:18;;;;;;;8.27;3.88;;;14.10;99.90;;;;;;5045276;28;20028;-74
2022/10/11 01:50:45;;;;;;;9.10;4.55;;;14.10;99.90;;;;;;5040529;28;20025;-73
2022/10/11 01:53:41;;;;;;;8.73;3.58;;;14.10;99.90;;;;;;5045454;28;20025;-73
2022/10/11 01:56:29;;;;;;;10.15;3.63;;;14.10;99.90;;;;;;5044362;28;20481;-73
2022/10/11 01:59:31;;;;;;;10.93;4.32;;;14.10;99.90;;;;;;5044504;28;20033;-74
2022/10/11 02:01:57;;;;;;;9.50;4.47;;;14.00;99.90;;;;;;5042075;28;20067;-73
2022/10/11 02:04:44;;;;;;;9.15;4.25;;;14.00;99.90;;;;;;5043160;28;20037;-73
2022/10/11 02:07:23;;;;;;;10.27;4.57;;;14.00;99.90;;;;;;5042274;28;20028;-73
2022/10/11 02:10:15;;;;;;;9.40;4.18;;;14.00;99.90;;;;;;5041731;28;20401;-72
2022/10/11 02:12:51;;;;;;;9.35;4.22;;;13.90;99.90;;;;;;5046581;28;20037;-72
2022/10/11 02:15:19;;;;;;;7.03;3.85;;;13.90;99.90;;;;;;5049622;28;20071;-73
2022/10/11 02:17:50;;;;;;;8.80;3.97;;;13.90;99.90;;;;;;5043198;28;20597;-72
2022/10/11 02:20:25;;;;;;;10.27;4.22;;;13.80;99.90;;;;;;5047712;28;20123;-72
2022/10/11 02:23:07;;;;;;;10.27;4.80;;;13.80;99.90;;;;;;5042277;28;20025;-72
2022/10/11 02:25:34;;;;;;;9.00;4.43;;;13.80;99.90;;;;;;5062689;28;20033;-72
2022/10/11 02:28:03;;;;;;;7.85;4.50;;;13.80;99.90;;;;;;5045536;28;20081;-72
2022/10/11 02:30:33;;;;;;;12.57;4.03;;;13.80;99.90;;;;;;5058013;28;20033;-71
2022/10/11 02:33:03;;;;;;;5.90;3.80;;;13.80;99.90;;;;;;5044516;28;20033;-71
2022/10/11 02:35:35;;;;;;;9.43;4.68;;;13.80;99.90;;;;;;5050146;28;20025;-73
2022/10/11 02:38:38;;;;;;;11.20;4.40;;;13.80;99.90;;;;;;5056577;28;20036;-73
2022/10/11 02:41:20;;;;;;;10.43;4.00;;;13.80;99.90;;;;;;5045767;28;20033;-73
2022/10/11 02:44:09;;;;;;;7.55;3.70;;;13.80;99.90;;;;;;5047446;28;20025;-73
2022/10/11 02:46:36;;;;;;;7.57;3.85;;;13.80;99.90;;;;;;5035966;28;20091;-73
2022/10/11 02:49:02;;;;;;;8.45;3.90;;;13.80;99.90;;;;;;5048726;28;20032;-73
2022/10/11 02:51:35;;;;;;;7.47;4.18;;;13.80;99.90;;;;;;5046896;28;20039;-73
2022/10/11 02:54:00;;;;;;;14.77;4.53;;;13.80;99.90;;;;;;5046810;28;20060;-72
2022/10/11 02:56:26;;;;;;;11.23;4.00;;;13.80;99.90;;;;;;5059119;28;20056;-73
2022/10/11 02:58:55;;;;;;;13.63;4.15;;;13.80;99.90;;;;;;5048398;28;20116;-72
2022/10/11 03:01:20;;;;;;;9.70;4.18;;;13.80;99.90;;;;;;5044308;28;20036;-72
2022/10/11 03:03:49;;;;;;;8.88;4.22;;;13.80;99.90;;;;;;5044215;28;20029;-72
2022/10/11 03:06:15;;;;;;;12.85;3.90;;;13.80;99.90;;;;;;5047716;28;20021;-73
2022/10/11 03:08:43;;;;;;;10.82;3.78;;;13.80;99.90;;;;;;5045025;28;20032;-72
2022/10/11 03:11:09;;;;;;;8.38;4.47;;;13.80;99.90;;;;;;5063021;28;20032;-73
2022/10/11 03:13:41;;;;;;;12.18;3.67;;;13.80;99.90;;;;;;5045713;28;20029;-72
2022/10/11 03:16:06;;;;;;;11.05;3.75;;;13.80;99.90;;;;;;5039429;28;20041;-73
2022/10/11 03:18:32;;;;;;;8.52;3.67;;;13.80;99.90;;;;;;5047985;28;20033;-73
2022/10/11 03:20:57;;;;;;;7.85;3.42;;;13.80;99.90;;;;;;5044008;28;20025;-73
2022/10/11 03:23:23;;;;;;;8.82;3.58;;;13.80;99.90;;;;;;5045831;28;20025;-73
2022/10/11 03:25:50;;;;;;;5.18;3.55;;;13.90;99.90;;;;;;5046259;28;20021;-73
2022/10/11 03:28:16;;;;;;;7.90;4.13;;;13.90;99.90;;;;;;5044131;28;20104;-72
2022/10/11 03:30:42;;;;;;;7.65;3.80;;;13.90;99.90;;;;;;5048322;28;20552;-72
2022/10/11 03:33:07;;;;;;;8.35;4.18;;;13.90;99.90;;;;;;5044959;28;20040;-72
2022/10/11 03:35:33;;;;;;;11.05;4.40;;;13.90;99.90;;;;;;5044786;28;20033;-72
2022/10/11 03:37:58;;;;;;;11.60;4.25;;;13.90;99.90;;;;;;5048390;28;20115;-72
2022/10/11 03:40:24;;;;;;;9.10;4.28;;;13.90;99.90;;;;;;5046567;28;20083;-72
2022/10/11 03:42:49;;;;;;;8.13;3.50;;;13.90;99.90;;;;;;5047132;28;20025;-73
2022/10/11 03:45:15;;;;;;;10.38;3.97;;;13.90;99.90;;;;;;5048643;28;20028;-73
2022/10/11 03:47:41;;;;;;;12.38;3.88;;;13.90;99.90;;;;;;5043684;28;20112;-73
2022/10/11 03:50:07;;;;;;;9.88;3.78;;;13.90;99.90;;;;;;5058836;28;20026;-72
2022/10/11 03:52:34;;;;;;;15.90;3.85;;;13.90;99.90;;;;;;5047187;28;20033;-73
2022/10/11 03:54:59;;;;;;;11.90;3.33;;;13.90;99.90;;;;;;5043715;28;20033;-74
2022/10/11 03:57:25;;;;;;;9.73;4.25;;;13.80;99.90;;;;;;5059132;28;20041;-74
2022/10/11 03:59:50;;;;;;;9.55;3.80;;;13.90;99.90;;;;;;5046585;28;20039;-73
2022/10/11 04:02:16;;;;;;;9.85;3.60;;;13.90;99.90;;;;;;5064967;28;20040;-73
2022/10/11 04:04:42;;;;;;;7.90;4.20;;;13.80;99.90;;;;;;5045915;28;20021;-73
2022/10/11 04:07:07;;;;;;;11.88;4.32;;;13.90;99.90;;;;;;5042328;28;20021;-73
2022/10/11 04:09:33;;;;;;;15.52;4.20;;;13.80;99.90;;;;;;5058676;28;20021;-73
2022/10/11 04:11:59;;;;;;;8.18;3.60;;;13.80;99.90;;;;;;5041571;28;20565;-73
2022/10/11 04:14:25;;;;;;;10.13;4.18;;;13.80;99.90;;;;;;5044294;28;20477;-72
2022/10/11 04:16:51;;;;;;;8.23;4.10;;;13.80;99.90;;;;;;5040656;28;20055;-73
2022/10/11 04:19:16;;;;;;;10.77;4.10;;;13.80;99.90;;;;;;5058399;28;20120;-72
2022/10/11 04:21:42;;;;;;;9.50;3.83;;;13.80;99.90;;;;;;5040682;28;20040;-73
2022/10/11 04:24:10;;;;;;;11.98;4.22;;;13.80;99.90;;;;;;5045137;28;20100;-72
2022/10/11 04:26:36;;;;;;;14.60;3.85;;;13.80;99.90;;;;;;5043861;28;20036;-73
2022/10/11 04:29:02;;;;;;;14.68;5.10;;;13.80;99.90;;;;;;5043525;28;20028;-73
2022/10/11 04:31:27;;;;;;;10.57;4.05;;;13.80;99.90;;;;;;5056847;28;20271;-67
2022/10/11 04:33:53;;;;;;;7.63;3.85;;;13.80;99.90;;;;;;5056012;28;20124;-67
2022/10/11 04:36:18;;;;;;;12.82;4.53;;;13.80;99.90;;;;;;5040517;28;20397;-67
2022/10/11 04:38:44;;;;;;;9.23;4.40;;;13.80;99.90;;;;;;5047060;28;20036;-67
2022/10/11 04:41:14;;;;;;;12.35;4.43;;;13.80;99.90;;;;;;5038855;28;20106;-67
2022/10/11 04:43:39;;;;;;;10.75;4.50;;;13.80;99.90;;;;;;5043766;28;20489;-67
2022/10/11 04:46:06;;;;;;;9.73;4.35;;;13.80;99.90;;;;;;5047394;28;20051;-67
2022/10/11 04:48:31;;;;;;;12.55;6.30;;;13.90;99.90;;;;;;5046975;28;20032;-67
2022/10/11 04:50:57;;;;;;;10.80;4.95;;;13.90;99.90;;;;;;5044325;28;20040;-66
2022/10/11 04:53:23;;;;;;;12.90;5.00;;;13.90;99.90;;;;;;5041619;28;20037;-73
2022/10/11 04:56:00;;;;;;;13.73;4.68;;;13.90;99.90;;;;;;5045133;28;20043;-73
2022/10/11 04:58:30;;;;;;;13.75;4.93;;;13.90;99.90;;;;;;5044194;28;21903;-73
2022/10/11 05:00:56;;;;;;;10.98;4.88;;;13.90;99.90;;;;;;5046367;28;20044;-72
2022/10/11 05:03:22;;;;;;;14.05;6.03;;;13.90;99.90;;;;;;5043257;28;20112;-73
2022/10/11 05:05:48;;;;;;;10.55;6.20;;;13.90;99.90;;;;;;5046402;28;20029;-73
2022/10/11 05:08:14;;;;;;;10.93;5.70;;;13.90;99.90;;;;;;5046780;28;20024;-73
2022/10/11 05:10:39;;;;;;;18.05;7.05;;;13.90;99.90;;;;;;5044307;28;20043;-73
2022/10/11 05:13:05;;;;;;;10.55;6.40;;;13.90;99.90;;;;;;5046306;28;20075;-73
2022/10/11 05:15:31;;;;;;;12.02;6.65;;;13.90;99.90;;;;;;5046839;28;20025;-72
2022/10/11 05:17:56;;;;;;;11.80;6.50;;;13.90;99.90;;;;;;5048165;28;20078;-72
2022/10/11 05:20:22;;;;;;;18.42;7.30;;;13.90;99.90;;;;;;5045893;28;20460;-72
2022/10/11 05:22:48;;;;;;;12.48;7.57;;;13.90;99.90;;;;;;5045258;28;20044;-74
2022/10/11 05:25:13;;;;;;;12.15;6.80;;;13.90;99.90;;;;;;5045507;28;20835;-74
2022/10/11 05:27:39;;;;;;;11.80;6.10;;;13.80;99.90;;;;;;5044063;28;20040;-74
2022/10/11 05:30:05;;;;;;;13.02;7.05;;;13.80;99.90;;;;;;5042777;28;20029;-73
2022/10/11 05:32:31;;;;;;;15.40;7.15;;;13.80;99.90;;;;;;5045773;28;20063;-72
2022/10/11 05:34:56;;;;;;;14.57;7.47;;;13.90;99.90;;;;;;5042062;28;20465;-73
2022/10/11 05:37:22;;;;;;;15.82;8.48;;;13.80;99.90;;;;;;5036802;28;20036;-72
2022/10/11 05:39:48;;;;;;;14.02;8.55;;;13.80;99.90;;;;;;5059436;28;20470;-71
2022/10/11 05:42:14;;;;;;;20.42;8.73;;;13.90;99.90;;;;;;5041814;28;20030;-73
2022/10/11 05:44:40;;;;;;;14.15;7.65;;;13.90;99.90;;;;;;5036039;28;20033;-72
2022/10/11 05:47:05;;;;;;;11.80;7.65;;;13.90;99.90;;;;;;5045702;28;20017;-70
2022/10/11 05:49:31;;;;;;;18.08;8.32;;;13.90;99.90;;;;;;5037554;28;20025;-70
2022/10/11 05:51:57;;;;;;;15.25;8.52;;;13.90;99.90;;;;;;5048110;28;20074;-72
2022/10/11 05:54:22;;;;;;;15.77;9.65;;;14.00;99.90;;;;;;5038073;28;20465;-71
2022/10/11 05:56:48;;;;;;;21.02;11.40;;;14.00;99.90;;;;;;5042616;28;20477;-71
2022/10/11 05:59:14;;;;;;;16.45;9.60;;;14.00;99.90;;;;;;5040874;28;20028;-70
2022/10/11 06:01:40;;;;;;;21.02;11.07;;;14.00;99.90;;;;;;5043177;28;20025;-71
2022/10/11 06:04:07;;;;;;;25.63;12.48;;;14.00;99.90;;;;;;5043334;28;20025;-71
2022/10/11 06:06:32;;;;;;;24.27;11.30;;;14.00;99.90;;;;;;5059477;28;20521;-71
2022/10/11 06:08:58;;;;;;;24.60;11.60;;;14.00;99.90;;;;;;5047441;28;20097;-70
2022/10/11 06:11:26;;;;;;;29.27;12.52;;;14.00;99.90;;;;;;5040900;28;20385;-71
2022/10/11 06:13:53;;;;;;;25.42;13.18;;;14.00;99.90;;;;;;5043212;28;20074;-72
2022/10/11 06:16:19;;;;;;;27.70;12.82;;;14.00;99.90;;;;;;5043097;28;20095;-71
2022/10/11 06:18:45;;;;;;;30.00;13.60;;;14.10;99.90;;;;;;5039446;28;20442;-70
2022/10/11 06:21:12;;;;;;;23.35;12.52;;;14.10;99.90;;;;;;5039948;28;20025;-72
2022/10/11 06:23:38;;;;;;;26.17;12.35;;;14.10;99.90;;;;;;5039759;28;20041;-71
2022/10/11 06:26:06;;;;;;;30.60;13.18;;;14.10;99.90;;;;;;5044712;28;20061;-72
2022/10/11 06:28:33;;;;;;;31.98;13.00;;;14.10;99.90;;;;;;5041123;28;20025;-71
2022/10/11 06:30:59;;;;;;;25.13;13.43;;;14.10;99.90;;;;;;5043749;28;20112;-72
2022/10/11 06:33:25;;;;;;;28.33;13.27;;;14.10;99.90;;;;;;5045312;28;20124;-72
2022/10/11 06:36:00;;;;;;;28.73;12.15;;;14.10;99.90;;;;;;5042407;28;20036;-72
2022/10/11 06:38:26;;;;;;;30.67;12.50;;;14.20;99.90;;;;;;5063469;28;20091;-72
2022/10/11 06:40:51;;;;;;;25.63;12.88;;;14.20;99.90;;;;;;5040811;28;20029;-72
2022/10/11 06:43:17;;;;;;;23.52;12.35;;;14.10;99.90;;;;;;5044290;28;20517;-72
2022/10/11 06:45:43;;;;;;;34.13;12.88;;;14.20;99.90;;;;;;5041532;28;20037;-72
2022/10/11 06:48:08;;;;;;;22.27;11.40;;;14.20;99.90;;;;;;5040132;28;20091;-72
2022/10/11 06:50:35;;;;;;;20.73;12.52;;;14.20;99.90;;;;;;5041456;28;20086;-72
2022/10/11 06:53:01;;;;;;;25.40;12.63;;;14.20;99.90;;;;;;5045785;28;20099;-72
2022/10/11 06:55:27;;;;;;;26.08;13.80;;;14.20;99.90;;;;;;5038778;28;20394;-71
2022/10/11 06:57:53;;;;;;;27.83;14.27;;;14.20;99.90;;;;;;5042324;28;20028;-71
2022/10/11 07:00:18;;;;;;;34.30;15.32;;;14.20;99.90;;;;;;5046469;28;20153;-72
2022/10/11 07:02:44;;;;;;;33.58;16.48;;;14.20;99.90;;;;;;5047272;28;20017;-71
2022/10/11 07:05:10;;;;;;;43.15;16.35;;;14.20;99.90;;;;;;5046972;28;20032;-72
2022/10/11 07:07:35;;;;;;;42.03;18.60;;;14.20;99.90;;;;;;5049980;28;20025;-72
2022/10/11 07:10:01;;;;;;;50.08;17.52;;;14.20;99.90;;;;;;5045274;28;20100;-71
2022/10/11 07:12:27;;;;;;;36.25;15.68;;;14.20;99.90;;;;;;5044102;28;20517;-72
2022/10/11 07:14:53;;;;;;;30.52;14.15;;;14.20;99.90;;;;;;5063851;28;20039;-72
2022/10/11 07:17:19;;;;;;;36.25;14.60;;;14.20;99.90;;;;;;5046428;28;20107;-72
2022/10/11 07:19:46;;;;;;;35.25;14.70;;;14.10;99.90;;;;;;5048461;28;20025;-72
2022/10/11 07:22:11;;;;;;;34.88;14.43;;;14.10;99.90;;;;;;5047081;28;20036;-71
2022/10/11 07:24:37;;;;;;;27.60;13.18;;;14.10;99.90;;;;;;5046294;28;20040;-72
2022/10/11 07:27:03;;;;;;;30.65;13.77;;;14.10;99.90;;;;;;5042095;28;20385;-71
2022/10/11 07:29:29;;;;;;;30.77;13.65;;;14.10;99.90;;;;;;5057099;28;20528;-71
2022/10/11 07:31:54;;;;;;;29.95;14.35;;;14.10;99.90;;;;;;5042710;28;20115;-72
2022/10/11 07:34:21;;;;;;;26.85;14.57;;;14.10;99.90;;;;;;5046161;28;20044;-71
2022/10/11 07:36:47;;;;;;;28.20;14.85;;;14.10;99.90;;;;;;5048891;28;20017;-72
2022/10/11 07:39:13;;;;;;;27.42;13.85;;;14.00;99.90;;;;;;5044823;28;20504;-72
2022/10/11 07:41:39;;;;;;;29.58;14.90;;;14.00;99.90;;;;;;5044416;28;20040;-71
2022/10/11 07:44:04;;;;;;;28.70;14.40;;;14.00;99.90;;;;;;5049685;28;20386;-75
2022/10/11 07:46:30;;;;;;;35.08;15.68;;;14.00;99.90;;;;;;5053953;28;20021;-75
2022/10/11 07:48:56;;;;;;;29.88;14.73;;;14.00;99.90;;;;;;5045719;28;20013;-75
2022/10/11 07:51:23;;;;;;;34.67;16.00;;;14.00;99.90;;;;;;5036921;28;20029;-76
2022/10/11 07:53:51;;;;;;;25.92;14.68;;;14.00;99.90;;;;;;5052286;28;20358;-76
2022/10/11 07:56:22;;;;;;;37.10;16.17;;;13.90;99.90;;;;;;5053827;28;21604;-76
2022/10/11 07:58:53;;;;;;;34.42;15.32;;;13.90;99.90;;;;;;5045860;28;20018;-76
2022/10/11 08:01:19;;;;;;;32.78;16.67;;;13.90;99.90;;;;;;5048135;28;20025;-76
2022/10/11 08:03:45;;;;;;;32.28;15.93;;;13.90;99.90;;;;;;5053819;28;20096;-76
2022/10/11 08:06:14;;;;;;;38.35;16.35;;;13.90;99.90;;;;;;5052929;28;20075;-76
2022/10/11 08:08:40;;;;;;;40.08;17.45;;;13.90;99.90;;;;;;5044456;28;20100;-76
2022/10/11 08:11:06;;;;;;;38.13;17.92;;;13.90;99.90;;;;;;5043651;28;20056;-76
2022/10/11 08:13:33;;;;;;;41.13;18.70;;;13.90;99.90;;;;;;5033605;28;20109;-75
2022/10/11 08:15:59;;;;;;;32.13;16.77;;;13.90;99.90;;;;;;5038474;28;20385;-76
2022/10/11 08:18:24;;;;;;;38.55;17.65;;;14.00;99.90;;;;;;5036069;28;20026;-76
2022/10/11 08:20:51;;;;;;;31.17;17.13;;;14.00;99.90;;;;;;5033582;28;20032;-76
2022/10/11 08:23:17;;;;;;;35.13;17.38;;;14.10;99.90;;;;;;5033449;28;20029;-76
2022/10/11 08:25:45;;;;;;;45.33;18.42;;;14.10;99.90;;;;;;5033516;28;20029;-76
2022/10/11 08:28:15;;;;;;;41.97;17.67;;;14.10;99.90;;;;;;5048638;28;20092;-76
2022/10/11 08:30:48;;;;;;;37.83;18.20;;;14.10;99.90;;;;;;5033441;28;20075;-76
2022/10/11 08:33:13;;;;;;;38.75;17.20;;;14.10;99.90;;;;;;5033326;28;20112;-76
2022/10/11 08:35:39;;;;;;;36.28;18.13;;;14.20;99.90;;;;;;5031986;28;20108;-76
2022/10/11 08:38:05;;;;;;;35.80;17.95;;;14.20;99.90;;;;;;5049037;28;20025;-75
2022/10/11 08:40:30;;;;;;;46.03;20.85;;;14.20;99.90;;;;;;5042611;28;20025;-75
2022/10/11 08:43:06;;;;;;;38.40;17.42;;;14.20;99.90;;;;;;5047361;28;20135;-76
2022/10/11 08:45:42;;;;;;;41.13;17.83;;;14.20;99.90;;;;;;5048292;28;20029;-76
2022/10/11 08:48:19;;;;;;;35.78;17.25;;;14.30;99.90;;;;;;5043797;28;20032;-76
2022/10/11 08:50:49;;;;;;;34.30;17.20;;;14.40;99.90;;;;;;5033344;28;20560;-76
2022/10/11 08:53:25;;;;;;;37.45;17.30;;;14.40;99.90;;;;;;5040372;28;20023;-76
2022/10/11 08:55:53;;;;;;;28.83;16.58;;;14.40;99.90;;;;;;5040079;28;20394;-75
2022/10/11 08:58:24;;;;;;;35.63;16.95;;;14.40;99.90;;;;;;5056315;28;20086;-75
2022/10/11 09:00:55;;;;;;;31.35;15.90;;;14.50;99.90;;;;;;5040970;28;20804;-76
2022/10/11 09:03:58;;;;;;;30.17;16.02;;;14.50;99.90;;;;;;5042500;28;20531;-76
2022/10/11 09:06:29;;;;;;;35.40;16.65;;;14.50;99.90;;;;;;4979319;28;20089;-76
2022/10/11 09:09:22;;;;;;;25.65;15.18;;;14.60;99.90;;;;;;5037905;28;20409;-76
2022/10/11 09:12:22;;;;;;;34.10;15.85;;;14.60;99.90;;;;;;5046132;28;20020;-75
2022/10/11 09:15:11;;;;;;;30.30;14.77;;;14.60;99.90;;;;;;5064054;28;20033;-77
2022/10/11 09:18:02;;;;;;;29.98;16.10;;;14.60;99.90;;;;;;5042562;28;20086;-76
2022/10/11 09:20:47;;;;;;;35.17;17.27;;;14.60;99.90;;;;;;5044457;28;20051;-76
2022/10/11 09:23:52;;;;;;;31.95;15.90;;;14.70;99.90;;;;;;5047743;28;20025;-76
2022/10/11 09:26:24;;;;;;;;;;;14.80;99.90;;;;;;5042641;28;20447;-75
2022/10/11 09:29:14;;;;;;;23.50;13.77;;;14.80;99.90;;;;;;5044894;28;19912;-76
2022/10/11 09:31:44;;;;;;;29.70;16.05;;;14.90;99.90;;;;;;5043371;28;20029;-77
2022/10/11 09:34:13;;;;;;;35.15;15.13;;;14.90;99.90;;;;;;5047635;28;20035;-77
2022/10/11 09:36:53;;;;;;;32.20;15.48;;;14.90;99.90;;;;;;5047493;28;20032;-75
2022/10/11 09:39:30;;;;;;;26.65;15.43;;;14.90;99.90;;;;;;5045023;28;20424;-77
2022/10/11 09:42:04;;;;;;;28.30;15.80;;;15.00;99.90;;;;;;5044486;28;20029;-77
2022/10/11 09:44:46;;;;;;;28.45;15.63;;;15.00;99.90;;;;;;5043826;28;20031;-76
2022/10/11 09:47:26;;;;;;;28.02;15.05;;;15.10;99.90;;;;;;5048498;28;20567;-77
2022/10/11 09:50:10;;;;;;;25.02;14.30;;;15.10;99.90;;;;;;5058502;28;20033;-77
2022/10/11 09:52:46;;;;;;;;;;;15.10;99.90;;;;;;5043612;28;20032;-76
2022/10/11 09:55:32;;;;;;;29.35;14.43;;;15.20;99.90;;;;;;5040878;28;20381;-76
2022/10/11 09:57:58;;;;;;;24.17;12.73;;;15.20;99.90;;;;;;5043279;28;20036;-76
2022/10/11 10:00:27;;;;;;;28.67;14.18;;;15.30;99.90;;;;;;5047555;28;20067;-75
2022/10/11 10:02:55;;;;;;;28.20;13.85;;;15.30;99.90;;;;;;5047188;28;20067;-77
2022/10/11 10:05:23;;;;;;;30.63;13.70;;;15.40;99.90;;;;;;5040976;28;20055;-77
2022/10/11 10:07:59;;;;;;;29.67;13.95;;;15.40;99.90;;;;;;5043634;28;20070;-75
2022/10/11 10:10:37;;;;;;;23.35;13.52;;;15.50;99.90;;;;;;5042440;28;20063;-76
2022/10/11 10:13:05;;;;;;;30.58;13.32;;;15.50;99.90;;;;;;5040308;28;20025;-75
2022/10/11 10:15:34;;;;;;;26.73;13.35;;;15.50;99.90;;;;;;5046929;28;20029;-76
2022/10/11 10:18:01;;;;;;;29.20;13.52;;;15.50;99.90;;;;;;5046791;28;20057;-76
2022/10/11 10:20:32;;;;;;;28.00;13.70;;;15.60;99.90;;;;;;5044475;28;20029;-76
2022/10/11 10:23:18;;;;;;;28.10;13.23;;;15.60;99.90;;;;;;5060721;28;20025;-76
2022/10/11 10:25:49;;;;;;;23.75;12.80;;;15.70;99.90;;;;;;5047809;28;20032;-76
2022/10/11 10:28:21;;;;;;;25.98;13.35;;;15.70;99.90;;;;;;5045128;28;20104;-78
2022/10/11 10:30:56;;;;;;;29.52;13.75;;;15.70;99.90;;;;;;5043324;28;20515;-78
2022/10/11 10:33:24;;;;;;;18.60;10.63;;;15.70;99.90;;;;;;5049110;28;20037;-78
2022/10/11 10:35:59;;;;;;;22.77;11.95;;;15.70;99.90;;;;;;5052191;28;20605;-77
2022/10/11 10:38:39;;;;;;;31.42;12.93;;;15.70;99.90;;;;;;5050717;28;20101;-78
2022/10/11 10:41:09;;;;;;;26.70;13.13;;;15.70;99.90;;;;;;5052944;28;20024;-77
2022/10/11 10:43:38;;;;;;;31.90;12.90;;;15.80;99.90;;;;;;5048873;28;20028;-78
2022/10/11 10:46:37;;;;;;;33.03;15.35;;;15.70;99.90;;;;;;5068407;28;20021;-78
2022/10/11 10:49:32;;;;;;;27.98;14.77;;;15.70;99.90;;;;;;5051273;28;20060;-78
2022/10/11 10:52:19;;;;;;;30.75;13.02;;;15.60;99.90;;;;;;5043701;28;20037;-77
2022/10/11 10:55:02;;;;;;;28.15;14.65;;;15.50;99.90;;;;;;5062629;28;20022;-77
2022/10/11 10:57:40;;;;;;;25.70;14.98;;;15.40;99.90;;;;;;5052786;28;20021;-77
2022/10/11 11:00:11;;;;;;;25.75;14.00;;;15.30;99.90;;;;;;5047475;28;20036;-76
2022/10/11 11:02:50;;;;;;;30.20;14.90;;;15.30;99.90;;;;;;5046365;28;20060;-77
2022/10/11 11:05:20;;;;;;;34.20;14.82;;;15.30;99.90;;;;;;5045619;28;20036;-76
2022/10/11 11:07:52;;;;;;;29.52;15.15;;;15.20;99.90;;;;;;5060704;28;20098;-77
2022/10/11 11:10:34;;;;;;;27.77;14.15;;;15.20;99.90;;;;;;5050289;28;20021;-77
2022/10/11 11:13:19;;;;;;;27.58;14.85;;;15.10;99.90;;;;;;5043077;28;20025;-77
2022/10/11 11:16:11;;;;;;;33.60;14.15;;;15.10;99.90;;;;;;5050654;28;20067;-77
2022/10/11 11:19:01;;;;;;;26.33;14.35;;;15.00;99.90;;;;;;5048062;28;20041;-77
2022/10/11 11:21:45;;;;;;;33.60;15.88;;;15.00;99.90;;;;;;5046025;28;20092;-77
2022/10/11 11:24:35;;;;;;;31.38;14.90;;;15.00;99.90;;;;;;5059558;28;20029;-77
2022/10/11 11:27:19;;;;;;;25.88;14.50;;;15.10;99.90;;;;;;5049869;28;20044;-77
2022/10/11 11:29:48;;;;;;;26.67;14.05;;;15.10;99.90;;;;;;5064003;28;20505;-77
2022/10/11 11:32:52;;;;;;;33.10;14.60;;;15.10;99.90;;;;;;5045628;28;20102;-77
2022/10/11 11:35:38;;;;;;;21.85;12.57;;;15.10;99.90;;;;;;5048110;28;20074;-78
2022/10/11 11:38:30;;;;;;;23.15;13.35;;;15.20;99.90;;;;;;5043519;28;20498;-77
2022/10/11 11:41:01;;;;;;;29.33;13.15;;;15.20;99.90;;;;;;5051946;28;20100;-78
2022/10/11 11:43:37;;;;;;;26.50;13.38;;;15.30;99.90;;;;;;5058536;28;20075;-78
2022/10/11 11:46:16;;;;;;;26.42;13.63;;;15.40;99.90;;;;;;5046538;28;20518;-75
2022/10/11 11:48:43;;;;;;;25.02;12.57;;;15.40;99.90;;;;;;5059946;28;20025;-76
2022/10/11 11:51:17;;;;;;;36.30;13.63;;;15.50;99.90;;;;;;5044534;28;20025;-78
2022/10/11 11:53:49;;;;;;;23.77;11.70;;;15.50;99.90;;;;;;5053012;28;20025;-77
2022/10/11 11:56:33;;;;;;;23.20;12.65;;;15.60;99.90;;;;;;5065109;28;20093;-77
2022/10/11 11:59:22;;;;;;;23.05;12.18;;;15.70;99.90;;;;;;5048053;28;20025;-77
2022/10/11 12:02:20;;;;;;;29.52;13.02;;;15.70;99.90;;;;;;5044161;28;20030;-77
2022/10/11 12:04:48;;;;;;;24.27;12.77;;;15.80;99.90;;;;;;5029721;28;20036;-77
2022/10/11 12:07:16;;;;;;;20.95;12.20;;;15.90;99.90;;;;;;5049570;28;20032;-77
2022/10/11 12:09:45;;;;;;;21.50;12.35;;;15.90;99.90;;;;;;5044878;28;20462;-77
2022/10/11 12:12:33;;;;;;;25.77;13.93;;;16.00;99.90;;;;;;5046755;28;20020;-77
2022/10/11 12:15:23;;;;;;;32.90;14.43;;;16.00;99.90;;;;;;5062225;28;20028;-78
2022/10/11 12:17:55;;;;;;;28.00;12.57;;;16.00;99.90;;;;;;5031362;28;20037;-77
2022/10/11 12:20:26;;;;;;;25.67;11.60;;;16.00;99.90;;;;;;5043268;28;20516;-77
2022/10/11 12:23:08;;;;;;;31.55;13.38;;;16.00;99.90;;;;;;5049083;28;20052;-77
2022/10/11 12:25:38;;;;;;;21.25;12.63;;;15.90;99.90;;;;;;5046337;28;20521;-76
2022/10/11 12:28:41;;;;;;;23.75;12.75;;;15.90;99.90;;;;;;5048205;28;20028;-77
2022/10/11 12:31:22;;;;;;;23.95;12.15;;;15.90;99.90;;;;;;5047134;28;20025;-77
2022/10/11 12:33:59;;;;;;;26.63;12.20;;;15.90;99.90;;;;;;5047145;28;20083;-77
2022/10/11 12:36:28;;;;;;;24.05;12.02;;;15.90;99.90;;;;;;5043711;28;20104;-77
2022/10/11 12:39:19;;;;;;;22.73;13.13;;;15.90;99.90;;;;;;5046822;28;20071;-76
2022/10/11 12:41:52;;;;;;;26.10;12.00;;;15.90;99.90;;;;;;5044950;28;20043;-77
2022/10/11 12:44:18;;;;;;;25.92;12.55;;;15.90;99.90;;;;;;5061951;28;20037;-77
2022/10/11 12:46:49;;;;;;;27.35;12.82;;;15.90;99.90;;;;;;5041901;28;20350;-77
2022/10/11 12:49:24;;;;;;;25.42;12.88;;;16.00;99.90;;;;;;5043760;28;20160;-77
2022/10/11 12:51:56;;;;;;;23.45;12.75;;;15.90;99.90;;;;;;5044780;28;20025;-77
2022/10/11 12:54:24;;;;;;;31.63;13.55;;;15.90;99.90;;;;;;5039813;28;20036;-77
2022/10/11 12:56:59;;;;;;;26.17;13.38;;;15.90;99.90;;;;;;5046762;28;20063;-77